Time;durP1;ratioP1;P1;durP2;ratioP2;P2;SDS_P1;SDS_P2;PMS_P1;PMS_P2;Temp;Humidity;BMP_temperature;BMP_pressure;BME280_temperature;BME280_humidity;BME280_pressure;Samples;Min_cycle;Max_cycle;Signal;HPM_P1;HPM_P2
2021/04/09 00:00:24;;;;;;;0.40;0.40;;;4.20;99.90;;;;;;4414013;32;20487;-74
2021/04/09 00:02:50;;;;;;;0.40;0.40;;;4.30;99.90;;;;;;4429244;26;20058;-75
2021/04/09 00:05:18;;;;;;;0.65;0.60;;;4.30;99.90;;;;;;4412791;32;20407;-75
2021/04/09 00:07:44;;;;;;;0.30;0.30;;;4.30;99.90;;;;;;4411883;32;20061;-75
2021/04/09 00:10:10;;;;;;;0.80;0.80;;;4.30;99.90;;;;;;4412382;32;20062;-75
2021/04/09 00:12:38;;;;;;;0.40;0.40;;;4.20;99.90;;;;;;4415321;32;20481;-76
2021/04/09 00:15:06;;;;;;;0.40;0.40;;;4.20;99.90;;;;;;4413525;32;20105;-76
2021/04/09 00:17:32;;;;;;;0.80;0.70;;;4.20;99.90;;;;;;4413393;32;20139;-75
2021/04/09 00:19:57;;;;;;;0.50;0.50;;;4.10;99.90;;;;;;4413384;32;20070;-75
2021/04/09 00:22:23;;;;;;;0.30;0.30;;;4.10;99.90;;;;;;4412776;32;20479;-75
2021/04/09 00:24:48;;;;;;;0.62;0.62;;;3.90;99.90;;;;;;4412281;32;20061;-76
2021/04/09 00:27:14;;;;;;;0.40;0.40;;;4.00;99.90;;;;;;4412105;32;20510;-75
2021/04/09 00:29:39;;;;;;;0.30;0.30;;;4.10;99.90;;;;;;4412645;32;20073;-75
2021/04/09 00:32:05;;;;;;;8.75;0.93;;;4.00;99.90;;;;;;4413748;32;20133;-75
2021/04/09 00:34:31;;;;;;;0.30;0.30;;;4.00;99.90;;;;;;4412185;32;20124;-75
2021/04/09 00:36:56;;;;;;;0.88;0.88;;;4.00;99.90;;;;;;4413475;32;20086;-75
2021/04/09 00:39:22;;;;;;;1.55;1.40;;;3.90;99.90;;;;;;4412415;32;20073;-75
2021/04/09 00:41:47;;;;;;;0.98;0.98;;;3.90;99.90;;;;;;4412676;32;20107;-75
2021/04/09 00:44:13;;;;;;;0.40;0.40;;;3.80;99.90;;;;;;4412552;32;20436;-75
2021/04/09 00:46:39;;;;;;;0.60;0.60;;;3.70;99.90;;;;;;4412846;32;20404;-75
2021/04/09 00:49:05;;;;;;;0.50;0.50;;;3.80;99.90;;;;;;4413447;32;20066;-75
2021/04/09 00:51:31;;;;;;;0.40;0.40;;;3.70;99.90;;;;;;4412748;32;20061;-75
2021/04/09 00:53:58;;;;;;;1.05;0.93;;;3.60;99.90;;;;;;4399069;32;20097;-75
2021/04/09 00:56:27;;;;;;;0.30;0.30;;;3.50;99.90;;;;;;4398562;32;20464;-75
2021/04/09 00:58:55;;;;;;;0.40;0.40;;;3.50;99.90;;;;;;4397123;32;20174;-75
2021/04/09 01:01:21;;;;;;;0.50;0.50;;;3.60;99.90;;;;;;4398802;32;20062;-75
2021/04/09 01:03:46;;;;;;;2.62;1.37;;;3.60;99.90;;;;;;4397238;32;20517;-75
2021/04/09 01:06:12;;;;;;;0.57;0.57;;;3.70;99.90;;;;;;4397616;32;20054;-75
2021/04/09 01:08:38;;;;;;;0.30;0.30;;;3.60;99.90;;;;;;4397030;32;20066;-75
2021/04/09 01:11:04;;;;;;;0.52;0.52;;;3.40;99.90;;;;;;4398346;32;20117;-75
2021/04/09 01:13:31;;;;;;;0.60;0.60;;;3.30;99.90;;;;;;4397459;32;20492;-75
2021/04/09 01:15:57;;;;;;;0.40;0.40;;;3.40;99.90;;;;;;4396970;32;20120;-75
2021/04/09 01:18:36;;;;;;;0.62;0.62;;;3.30;99.90;;;;;;4396899;32;20082;-75
2021/04/09 01:21:12;;;;;;;0.30;0.30;;;3.30;99.90;;;;;;4393414;32;20142;-75
2021/04/09 01:23:44;;;;;;;0.60;0.60;;;3.20;99.90;;;;;;4399933;32;20522;-75
2021/04/09 01:26:45;;;;;;;0.25;0.25;;;3.20;99.90;;;;;;4399608;32;20061;-75
2021/04/09 01:29:43;;;;;;;0.47;0.47;;;3.30;99.90;;;;;;4383149;32;20129;-75
2021/04/09 01:32:10;;;;;;;0.40;0.40;;;3.30;99.90;;;;;;4390181;32;20378;-75
2021/04/09 01:34:40;;;;;;;0.40;0.40;;;3.20;99.90;;;;;;4398903;32;20069;-75
2021/04/09 01:37:13;;;;;;;0.35;0.35;;;3.30;99.90;;;;;;4399042;32;20062;-75
2021/04/09 01:39:42;;;;;;;0.30;0.30;;;3.30;99.90;;;;;;4399160;32;20073;-75
2021/04/09 01:42:11;;;;;;;0.50;0.50;;;3.30;99.90;;;;;;4399734;32;20118;-75
2021/04/09 01:44:42;;;;;;;0.75;0.75;;;3.20;99.90;;;;;;4399759;32;20066;-75
2021/04/09 01:47:09;;;;;;;0.40;0.40;;;3.30;99.90;;;;;;4400048;32;20492;-75
2021/04/09 01:49:37;;;;;;;0.43;0.43;;;3.20;99.90;;;;;;4399537;32;20077;-75
2021/04/09 01:52:05;;;;;;;0.50;0.50;;;3.20;99.90;;;;;;4399674;32;20118;-75
2021/04/09 01:54:32;;;;;;;0.43;0.43;;;3.10;99.90;;;;;;4398631;32;20086;-75
2021/04/09 01:56:58;;;;;;;0.60;0.60;;;3.10;99.90;;;;;;4397694;32;20086;-76
2021/04/09 01:59:24;;;;;;;1.37;1.12;;;3.10;99.90;;;;;;4400167;32;20058;-75
2021/04/09 02:01:51;;;;;;;0.57;0.57;;;3.20;99.90;;;;;;4399312;32;20527;-75
2021/04/09 02:04:18;;;;;;;0.68;0.68;;;3.10;99.90;;;;;;4399132;32;20127;-75
2021/04/09 02:06:45;;;;;;;0.40;0.40;;;3.10;99.90;;;;;;4398877;32;20193;-75
2021/04/09 02:09:12;;;;;;;2.35;1.25;;;3.10;99.90;;;;;;4398775;32;20066;-75
2021/04/09 02:11:40;;;;;;;0.47;0.47;;;3.00;99.90;;;;;;4398444;32;20082;-75
2021/04/09 02:14:10;;;;;;;0.35;0.35;;;3.00;99.90;;;;;;4398889;32;20078;-75
2021/04/09 02:16:36;;;;;;;0.60;0.60;;;3.00;99.90;;;;;;4399504;32;20062;-75
2021/04/09 02:19:02;;;;;;;0.30;0.30;;;2.90;99.90;;;;;;4399536;32;20433;-75
2021/04/09 02:21:32;;;;;;;0.40;0.40;;;2.90;99.90;;;;;;4398798;32;20464;-75
2021/04/09 02:23:59;;;;;;;34.13;0.88;;;2.90;99.90;;;;;;4398421;32;20054;-75
2021/04/09 02:26:25;;;;;;;0.40;0.40;;;2.90;99.90;;;;;;4398730;32;20429;-75
2021/04/09 02:28:51;;;;;;;0.52;0.52;;;2.90;99.90;;;;;;4399115;32;20087;-75
2021/04/09 02:31:16;;;;;;;0.30;0.30;;;3.00;99.90;;;;;;4399437;32;20150;-75
2021/04/09 02:33:42;;;;;;;0.75;0.75;;;3.00;99.90;;;;;;4399794;32;20124;-75
2021/04/09 02:36:11;;;;;;;0.62;0.62;;;2.90;99.90;;;;;;4401152;32;20086;-75
2021/04/09 02:38:37;;;;;;;0.50;0.50;;;2.90;99.90;;;;;;4401279;32;20098;-75
2021/04/09 02:41:03;;;;;;;0.25;0.25;;;2.90;99.90;;;;;;4401177;32;20120;-76
2021/04/09 02:43:30;;;;;;;0.40;0.40;;;2.90;99.90;;;;;;4401158;32;20528;-75
2021/04/09 02:45:56;;;;;;;0.30;0.30;;;3.00;99.90;;;;;;4401783;32;20558;-75
2021/04/09 02:48:27;;;;;;;0.40;0.40;;;3.00;99.90;;;;;;4400812;32;20079;-75
2021/04/09 02:50:54;;;;;;;0.40;0.40;;;2.90;99.90;;;;;;4398685;32;20120;-75
2021/04/09 02:53:26;;;;;;;0.40;0.40;;;2.90;99.90;;;;;;4398050;32;20373;-75
2021/04/09 02:55:53;;;;;;;0.30;0.30;;;2.90;99.90;;;;;;4398438;32;20075;-75
2021/04/09 02:58:20;;;;;;;0.50;0.50;;;2.90;99.90;;;;;;4398512;32;20070;-75
2021/04/09 03:00:47;;;;;;;0.50;0.50;;;2.90;99.90;;;;;;4399338;32;20074;-75
2021/04/09 03:03:16;;;;;;;0.40;0.40;;;2.80;99.90;;;;;;4398759;32;20133;-75
2021/04/09 03:05:43;;;;;;;0.50;0.50;;;2.80;99.90;;;;;;4399478;32;20078;-75
2021/04/09 03:08:10;;;;;;;1.92;1.05;;;2.60;99.90;;;;;;4398886;32;20506;-75
2021/04/09 03:10:36;;;;;;;0.80;0.77;;;2.70;99.90;;;;;;4399475;32;20134;-75
2021/04/09 03:13:02;;;;;;;0.40;0.40;;;2.70;99.90;;;;;;4399703;32;20066;-75
2021/04/09 03:15:32;;;;;;;0.30;0.30;;;2.80;99.90;;;;;;4399952;32;20503;-75
2021/04/09 03:18:03;;;;;;;0.30;0.30;;;2.90;99.90;;;;;;4399051;32;20556;-75
2021/04/09 03:20:29;;;;;;;0.30;0.30;;;2.80;99.90;;;;;;4398220;32;20058;-75
2021/04/09 03:22:55;;;;;;;0.30;0.30;;;2.90;99.90;;;;;;4397793;32;20128;-75
2021/04/09 03:25:21;;;;;;;0.40;0.40;;;2.90;99.90;;;;;;4398507;32;20108;-75
2021/04/09 03:27:47;;;;;;;0.68;0.68;;;2.80;99.90;;;;;;4398702;32;20157;-75
2021/04/09 03:30:14;;;;;;;0.50;0.50;;;2.80;99.90;;;;;;4398617;32;20057;-75
2021/04/09 03:32:39;;;;;;;0.50;0.50;;;2.90;99.90;;;;;;4398168;32;20547;-75
2021/04/09 03:35:06;;;;;;;4.65;0.93;;;2.80;99.90;;;;;;4397819;32;20089;-75
2021/04/09 03:37:32;;;;;;;0.32;0.32;;;2.90;99.90;;;;;;4398279;32;20070;-75
2021/04/09 03:39:57;;;;;;;3.72;0.80;;;2.90;99.90;;;;;;4399969;32;20380;-75
2021/04/09 03:42:23;;;;;;;0.40;0.40;;;2.90;99.90;;;;;;4400702;32;20088;-75
2021/04/09 03:44:49;;;;;;;0.30;0.30;;;2.70;99.90;;;;;;4401017;32;20062;-75
2021/04/09 03:47:14;;;;;;;0.32;0.32;;;2.70;99.90;;;;;;4400237;32;20499;-75
2021/04/09 03:49:40;;;;;;;0.40;0.40;;;2.80;99.90;;;;;;4400148;32;20069;-75
2021/04/09 03:52:05;;;;;;;0.40;0.40;;;2.80;99.90;;;;;;4398396;32;20077;-75
2021/04/09 03:54:31;;;;;;;0.40;0.40;;;2.90;99.90;;;;;;4397060;32;20130;-75
2021/04/09 03:56:56;;;;;;;0.37;0.37;;;2.90;99.90;;;;;;4397906;32;20066;-75
2021/04/09 03:59:22;;;;;;;0.40;0.40;;;2.90;99.90;;;;;;4399290;32;20114;-75
2021/04/09 04:01:48;;;;;;;0.32;0.32;;;2.80;99.90;;;;;;4398480;32;20128;-75
2021/04/09 04:04:13;;;;;;;0.85;0.68;;;2.80;99.90;;;;;;4397763;32;20063;-75
2021/04/09 04:06:39;;;;;;;0.40;0.40;;;2.70;99.90;;;;;;4397434;32;20539;-75
2021/04/09 04:09:05;;;;;;;0.40;0.40;;;2.50;99.90;;;;;;4398102;32;20463;-75
2021/04/09 04:11:31;;;;;;;0.77;0.77;;;2.60;99.90;;;;;;4384639;32;20073;-75
2021/04/09 04:13:56;;;;;;;0.32;0.32;;;2.60;99.90;;;;;;4383805;32;20142;-75
2021/04/09 04:16:23;;;;;;;0.40;0.40;;;2.60;99.90;;;;;;4383005;32;20086;-75
2021/04/09 04:18:49;;;;;;;0.77;0.77;;;2.60;99.90;;;;;;4383471;32;20082;-76
2021/04/09 04:21:14;;;;;;;0.55;0.55;;;2.70;99.90;;;;;;4382428;32;20464;-75
2021/04/09 04:23:40;;;;;;;0.30;0.30;;;2.60;99.90;;;;;;4381902;32;20511;-75
2021/04/09 04:26:05;;;;;;;0.40;0.40;;;2.60;99.90;;;;;;4382376;32;20084;-75
2021/04/09 04:28:31;;;;;;;1.00;0.98;;;2.50;99.90;;;;;;4382208;32;20120;-75
2021/04/09 04:30:58;;;;;;;0.30;0.30;;;2.50;99.90;;;;;;4382367;32;20106;-75
2021/04/09 04:33:24;;;;;;;0.30;0.30;;;2.70;99.90;;;;;;4382567;32;20071;-75
2021/04/09 04:35:50;;;;;;;1.02;0.60;;;2.70;99.90;;;;;;4383419;32;20095;-75
2021/04/09 04:38:17;;;;;;;0.30;0.30;;;2.70;99.90;;;;;;4382580;32;20623;-75
2021/04/09 04:40:43;;;;;;;3.53;0.95;;;2.70;99.90;;;;;;4382160;32;20078;-75
2021/04/09 04:43:09;;;;;;;0.50;0.50;;;2.70;99.90;;;;;;4381935;32;20062;-75
2021/04/09 04:45:35;;;;;;;0.60;0.60;;;2.70;99.90;;;;;;4382051;32;20086;-74
2021/04/09 04:48:00;;;;;;;0.40;0.40;;;2.60;99.90;;;;;;4397300;32;20066;-75
2021/04/09 04:50:26;;;;;;;0.40;0.40;;;2.60;99.90;;;;;;4397086;32;20070;-74
2021/04/09 04:52:51;;;;;;;0.70;0.70;;;2.60;99.90;;;;;;4396768;32;20082;-74
2021/04/09 04:55:17;;;;;;;0.40;0.40;;;2.60;99.90;;;;;;4398594;32;20421;-75
2021/04/09 04:57:43;;;;;;;0.90;0.70;;;2.70;99.90;;;;;;4399556;32;20070;-74
2021/04/09 05:00:08;;;;;;;0.52;0.52;;;2.40;99.90;;;;;;4399776;32;20412;-75
2021/04/09 05:02:34;;;;;;;0.43;0.43;;;2.50;99.90;;;;;;4396642;32;20087;-74
2021/04/09 05:05:00;;;;;;;2.85;0.62;;;2.50;99.90;;;;;;4395451;32;20078;-74
2021/04/09 05:07:25;;;;;;;0.75;0.75;;;2.50;99.90;;;;;;4399392;32;20082;-74
2021/04/09 05:09:51;;;;;;;0.60;0.60;;;2.60;99.90;;;;;;4398246;32;20117;-75
2021/04/09 05:12:16;;;;;;;0.40;0.40;;;2.60;99.90;;;;;;4392920;32;20096;-75
2021/04/09 05:14:42;;;;;;;0.40;0.40;;;2.60;99.90;;;;;;4396822;32;20070;-75
2021/04/09 05:17:07;;;;;;;0.30;0.30;;;2.60;99.90;;;;;;4414651;32;20062;-74
2021/04/09 05:19:33;;;;;;;0.40;0.40;;;2.70;99.90;;;;;;4405208;32;20514;-75
2021/04/09 05:21:58;;;;;;;0.30;0.30;;;2.70;99.90;;;;;;4399838;32;20078;-75
2021/04/09 05:24:24;;;;;;;0.50;0.50;;;2.80;99.90;;;;;;4398520;32;20078;-75
2021/04/09 05:26:49;;;;;;;0.40;0.40;;;2.90;99.90;;;;;;4399128;32;20085;-74
2021/04/09 05:29:14;;;;;;;0.90;0.90;;;2.80;99.90;;;;;;4398098;32;20062;-75
2021/04/09 05:34:37;;;;;;;0.30;0.30;;;3.00;99.90;;;;;;4394717;32;20078;-74
2021/04/09 05:37:02;;;;;;;0.50;0.50;;;3.00;99.90;;;;;;4399506;32;20413;-74
2021/04/09 05:39:28;;;;;;;1.55;0.73;;;3.00;99.90;;;;;;4400207;32;20514;-74
2021/04/09 05:41:53;;;;;;;0.30;0.30;;;3.10;99.90;;;;;;4403032;32;20124;-74
2021/04/09 05:44:19;;;;;;;0.60;0.60;;;3.20;99.90;;;;;;4402730;32;20507;-74
2021/04/09 05:46:45;;;;;;;0.32;0.32;;;3.20;99.90;;;;;;4402031;32;20054;-74
2021/04/09 05:49:10;;;;;;;0.37;0.37;;;3.20;99.90;;;;;;4404124;32;20104;-74
2021/04/09 05:51:36;;;;;;;0.40;0.40;;;3.20;99.90;;;;;;4402132;32;20066;-74
2021/04/09 05:54:02;;;;;;;3.47;0.90;;;3.30;99.90;;;;;;4401017;32;20113;-74
2021/04/09 05:56:27;;;;;;;0.62;0.62;;;3.30;99.90;;;;;;4401438;32;20090;-74
2021/04/09 05:58:53;;;;;;;1.80;1.33;;;3.40;99.90;;;;;;4399003;32;20082;-74
2021/04/09 06:01:19;;;;;;;2.65;0.85;;;3.40;99.90;;;;;;4399211;32;20103;-75
2021/04/09 06:03:46;;;;;;;0.60;0.57;;;3.50;99.90;;;;;;4399121;32;20163;-75
2021/04/09 06:06:12;;;;;;;11.65;1.62;;;3.70;99.90;;;;;;4396201;32;20061;-75
2021/04/09 06:08:37;;;;;;;0.32;0.32;;;3.70;99.90;;;;;;4397205;32;20089;-74
2021/04/09 06:11:03;;;;;;;1.20;0.95;;;3.70;99.90;;;;;;4400144;32;20057;-75
2021/04/09 06:13:29;;;;;;;0.40;0.40;;;3.80;99.90;;;;;;4399850;32;20086;-74
2021/04/09 06:15:55;;;;;;;0.50;0.50;;;3.90;99.90;;;;;;4399298;32;20388;-75
2021/04/09 06:18:21;;;;;;;0.37;0.37;;;4.00;99.90;;;;;;4399254;32;20083;-75
2021/04/09 06:20:46;;;;;;;0.95;0.70;;;4.00;99.90;;;;;;4399537;32;20078;-75
2021/04/09 06:23:12;;;;;;;0.50;0.50;;;4.10;99.90;;;;;;4399623;32;20066;-75
2021/04/09 06:25:37;;;;;;;0.62;0.62;;;4.20;99.90;;;;;;4398733;32;20074;-75
2021/04/09 06:28:03;;;;;;;0.70;0.70;;;4.20;99.90;;;;;;4399779;32;20070;-75
2021/04/09 06:30:29;;;;;;;1.05;0.95;;;4.30;99.90;;;;;;4400166;32;20082;-75
2021/04/09 06:32:54;;;;;;;0.30;0.30;;;4.40;99.90;;;;;;4398999;32;20174;-75
2021/04/09 06:35:20;;;;;;;0.60;0.60;;;4.50;99.90;;;;;;4398076;32;20066;-75
2021/04/09 06:37:46;;;;;;;0.62;0.62;;;4.50;99.90;;;;;;4398241;32;20078;-75
2021/04/09 06:40:13;;;;;;;2.35;1.30;;;4.60;99.90;;;;;;4398791;32;20074;-75
2021/04/09 06:42:39;;;;;;;0.98;0.95;;;4.60;99.90;;;;;;4398553;32;20082;-75
2021/04/09 06:45:06;;;;;;;0.85;0.80;;;4.60;99.90;;;;;;4399087;32;20382;-76
2021/04/09 06:47:32;;;;;;;0.62;0.62;;;4.70;99.90;;;;;;4398176;32;20451;-75
2021/04/09 06:49:58;;;;;;;0.40;0.40;;;4.70;99.90;;;;;;4393017;32;20113;-75
2021/04/09 06:52:26;;;;;;;0.80;0.80;;;4.80;99.90;;;;;;4396223;32;20085;-75
2021/04/09 06:54:52;;;;;;;0.30;0.30;;;4.90;99.90;;;;;;4397714;32;20062;-75
2021/04/09 06:57:19;;;;;;;1.75;0.75;;;5.00;99.90;;;;;;4399319;32;20069;-75
2021/04/09 06:59:46;;;;;;;0.40;0.40;;;5.10;99.90;;;;;;4398928;32;20063;-75
2021/04/09 07:02:16;;;;;;;1.15;1.05;;;5.20;99.90;;;;;;4396282;32;20433;-75
2021/04/09 07:04:43;;;;;;;0.30;0.30;;;5.40;99.90;;;;;;4382343;32;20074;-75
2021/04/09 07:07:11;;;;;;;0.40;0.40;;;5.50;99.90;;;;;;4386811;32;20081;-76
2021/04/09 07:09:37;;;;;;;0.43;0.43;;;5.60;99.90;;;;;;4398123;32;20136;-75
2021/04/09 07:12:04;;;;;;;0.40;0.40;;;5.70;99.90;;;;;;4398271;32;20105;-75
2021/04/09 07:14:52;;;;;;;1.90;0.90;;;5.80;99.90;;;;;;4398085;32;20515;-76
2021/04/09 07:17:23;;;;;;;0.70;0.70;;;5.80;99.90;;;;;;4385845;32;20091;-75
2021/04/09 07:19:50;;;;;;;0.60;0.60;;;5.90;99.90;;;;;;4398265;32;20074;-76
2021/04/09 07:22:27;;;;;;;0.90;0.90;;;6.00;99.90;;;;;;4398458;32;20138;-75
2021/04/09 07:25:03;;;;;;;0.40;0.40;;;6.00;99.90;;;;;;4397769;32;20468;-75
2021/04/09 07:27:29;;;;;;;0.50;0.50;;;6.10;99.90;;;;;;4398781;32;20070;-75
2021/04/09 07:29:54;;;;;;;2.28;1.37;;;6.10;99.90;;;;;;4399316;32;20443;-75
2021/04/09 07:32:26;;;;;;;0.50;0.50;;;6.30;99.90;;;;;;4398337;32;20077;-75
2021/04/09 07:35:04;;;;;;;0.40;0.40;;;6.40;99.90;;;;;;4399138;32;20499;-75
2021/04/09 07:37:31;;;;;;;0.62;0.57;;;6.40;99.90;;;;;;4398521;32;20146;-75
2021/04/09 07:40:01;;;;;;;1.25;0.62;;;6.60;99.90;;;;;;4397766;32;20062;-75
2021/04/09 07:42:32;;;;;;;0.60;0.60;;;6.70;99.90;;;;;;4397934;32;20070;-75
2021/04/09 07:45:00;;;;;;;0.62;0.62;;;6.80;99.90;;;;;;4399290;32;20582;-75
2021/04/09 07:47:27;;;;;;;0.52;0.52;;;6.80;99.90;;;;;;4397645;32;20082;-75
2021/04/09 07:50:03;;;;;;;0.47;0.47;;;6.80;99.90;;;;;;4397854;32;20515;-75
2021/04/09 07:52:49;;;;;;;0.50;0.50;;;7.00;99.90;;;;;;4399555;32;20113;-75
2021/04/09 07:55:20;;;;;;;0.50;0.50;;;7.10;99.90;;;;;;4398158;32;20070;-75
2021/04/09 07:57:46;;;;;;;1.37;0.80;;;7.20;99.90;;;;;;4396134;32;20081;-75
2021/04/09 08:00:27;;;;;;;0.90;0.60;;;7.20;99.90;;;;;;4398506;32;20133;-75
2021/04/09 08:02:55;;;;;;;0.93;0.93;;;7.30;99.90;;;;;;4398169;32;20082;-75
2021/04/09 08:05:23;;;;;;;0.60;0.57;;;7.40;99.90;;;;;;4397249;32;20069;-75
2021/04/09 08:07:49;;;;;;;0.65;0.52;;;7.50;99.90;;;;;;4397154;32;20070;-75
2021/04/09 08:10:16;;;;;;;0.40;0.40;;;7.50;99.90;;;;;;4397610;32;20124;-75
2021/04/09 08:12:43;;;;;;;1.17;1.08;;;7.70;99.90;;;;;;4397874;32;20078;-75
2021/04/09 08:15:28;;;;;;;0.57;0.57;;;7.90;99.90;;;;;;4397252;32;20062;-75
2021/04/09 08:18:11;;;;;;;0.32;0.32;;;8.10;99.90;;;;;;4396892;32;20417;-75
2021/04/09 08:20:40;;;;;;;1.55;0.70;;;8.20;99.90;;;;;;4398392;32;20078;-75
2021/04/09 08:23:09;;;;;;;0.93;0.88;;;8.20;99.90;;;;;;4397119;32;20070;-75
2021/04/09 08:25:35;;;;;;;0.50;0.50;;;8.40;99.90;;;;;;4397116;32;20461;-75
2021/04/09 08:28:03;;;;;;;1.33;0.98;;;8.20;99.80;;;;;;4396936;32;20074;-75
2021/04/09 08:30:29;;;;;;;0.40;0.40;;;8.30;99.60;;;;;;4397192;32;20070;-75
2021/04/09 08:32:56;;;;;;;0.52;0.45;;;8.30;99.60;;;;;;4397588;32;20074;-75
2021/04/09 08:35:24;;;;;;;0.60;0.43;;;8.40;99.70;;;;;;4396973;32;20079;-75
2021/04/09 08:37:50;;;;;;;0.95;0.95;;;8.60;99.30;;;;;;4396605;32;20077;-75
2021/04/09 08:40:17;;;;;;;0.60;0.60;;;8.80;98.90;;;;;;4396979;32;20077;-75
2021/04/09 08:42:43;;;;;;;0.50;0.50;;;8.80;98.80;;;;;;4398384;32;20066;-75
2021/04/09 08:45:11;;;;;;;0.60;0.60;;;9.00;98.90;;;;;;4397708;32;20110;-75
2021/04/09 08:47:37;;;;;;;45.78;1.33;;;9.20;98.60;;;;;;4395272;32;20121;-75
2021/04/09 08:50:08;;;;;;;3.30;1.15;;;9.40;98.60;;;;;;4399053;32;20566;-76
2021/04/09 08:52:41;;;;;;;23.85;1.00;;;9.30;98.20;;;;;;4398245;32;20070;-75
2021/04/09 08:55:08;;;;;;;0.50;0.50;;;9.30;98.20;;;;;;4398091;32;20081;-76
2021/04/09 08:57:36;;;;;;;1.15;0.93;;;9.40;98.00;;;;;;4395760;32;20066;-75
2021/04/09 09:00:07;;;;;;;0.43;0.43;;;9.50;98.40;;;;;;4398390;32;20125;-75
2021/04/09 09:02:51;;;;;;;0.70;0.70;;;9.70;97.80;;;;;;4397900;32;20129;-76
2021/04/09 09:05:23;;;;;;;0.70;0.70;;;10.00;97.50;;;;;;4389092;32;20539;-76
2021/04/09 09:07:51;;;;;;;1.10;0.80;;;9.90;96.80;;;;;;4396180;32;20419;-75
2021/04/09 09:10:22;;;;;;;0.60;0.60;;;10.00;96.80;;;;;;4396450;32;20164;-76
2021/04/09 09:13:06;;;;;;;0.62;0.62;;;10.10;96.80;;;;;;4383126;32;20086;-76
2021/04/09 09:15:52;;;;;;;0.73;0.73;;;10.30;96.50;;;;;;4397904;32;20066;-76
2021/04/09 09:18:25;;;;;;;0.52;0.47;;;10.40;96.40;;;;;;4397099;32;20085;-75
2021/04/09 09:21:15;;;;;;;5.68;0.82;;;10.30;96.40;;;;;;4383779;32;20467;-76
2021/04/09 09:23:43;;;;;;;0.80;0.68;;;10.40;95.90;;;;;;4385695;32;20463;-75
2021/04/09 09:26:19;;;;;;;0.73;0.68;;;10.50;95.60;;;;;;4397484;32;20495;-76
2021/04/09 09:28:47;;;;;;;0.70;0.70;;;10.60;95.50;;;;;;4398065;32;20062;-76
2021/04/09 09:31:29;;;;;;;5.75;0.57;;;10.50;95.40;;;;;;4397000;32;20058;-76
2021/04/09 09:34:24;;;;;;;0.65;0.65;;;10.70;95.70;;;;;;4396728;32;20601;-75
2021/04/09 09:37:00;;;;;;;1.67;1.23;;;11.00;95.30;;;;;;4386281;32;20082;-76
2021/04/09 09:39:46;;;;;;;1.75;0.62;;;11.20;95.50;;;;;;4393441;32;73387;-76
2021/04/09 09:42:33;;;;;;;1.00;0.82;;;11.00;94.60;;;;;;4399364;32;20066;-76
2021/04/09 09:45:02;;;;;;;2.78;1.30;;;11.10;94.50;;;;;;4382691;32;20472;-76
2021/04/09 09:47:31;;;;;;;0.30;0.30;;;11.50;95.00;;;;;;4389520;32;20081;-76
2021/04/09 09:50:10;;;;;;;0.47;0.47;;;11.80;93.60;;;;;;4415052;32;20345;-76
2021/04/09 09:52:58;;;;;;;0.95;0.90;;;11.90;93.00;;;;;;4414275;32;20073;-76
2021/04/09 09:55:46;;;;;;;0.35;0.35;;;11.70;93.10;;;;;;4402379;32;20124;-76
2021/04/09 09:58:23;;;;;;;0.50;0.50;;;11.60;93.20;;;;;;4395235;32;20168;-76
2021/04/09 10:00:54;;;;;;;0.45;0.45;;;11.80;93.10;;;;;;4399372;32;20073;-76
2021/04/09 10:03:29;;;;;;;9.85;1.77;;;11.80;92.60;;;;;;4398799;32;20079;-76
2021/04/09 10:06:00;;;;;;;0.70;0.62;;;11.80;93.00;;;;;;4398587;32;20120;-76
2021/04/09 10:08:29;;;;;;;15.15;3.15;;;11.80;92.90;;;;;;4398675;32;20138;-76
2021/04/09 10:11:02;;;;;;;16.45;0.68;;;12.00;92.70;;;;;;4399288;32;20085;-76
2021/04/09 10:13:30;;;;;;;19.60;0.77;;;11.90;92.50;;;;;;4400031;32;20173;-76
2021/04/09 10:16:16;;;;;;;1.10;0.65;;;12.20;92.30;;;;;;4399868;32;20506;-76
2021/04/09 10:18:48;;;;;;;0.80;0.80;;;12.20;91.80;;;;;;4387949;32;20062;-76
2021/04/09 10:21:16;;;;;;;2.35;0.80;;;12.20;91.90;;;;;;4399050;32;20070;-76
2021/04/09 10:23:44;;;;;;;0.43;0.43;;;12.30;91.70;;;;;;4397689;32;20078;-76
2021/04/09 10:26:14;;;;;;;0.68;0.45;;;12.40;91.60;;;;;;4400455;32;20078;-75
2021/04/09 10:28:42;;;;;;;1.55;0.65;;;12.30;91.60;;;;;;4398426;32;20079;-76
2021/04/09 10:31:14;;;;;;;1.65;0.50;;;12.30;91.80;;;;;;4399015;32;20074;-76
2021/04/09 10:33:45;;;;;;;0.50;0.50;;;12.60;91.90;;;;;;4399079;32;20070;-76
2021/04/09 10:36:27;;;;;;;;;;;12.50;91.30;;;;;;4398686;32;20117;-76
2021/04/09 10:38:57;;;;;;;0.47;0.47;;;12.10;92.20;;;;;;4399850;32;19999;-76
2021/04/09 10:41:27;;;;;;;0.43;0.43;;;12.50;91.80;;;;;;4398299;32;20498;-76
2021/04/09 10:43:55;;;;;;;0.70;0.60;;;12.40;91.50;;;;;;4398536;32;20058;-76
2021/04/09 10:46:21;;;;;;;0.50;0.50;;;12.70;91.60;;;;;;4398540;32;20050;-75
2021/04/09 10:48:46;;;;;;;0.57;0.50;;;12.60;91.20;;;;;;4398623;32;20249;-75
2021/04/09 10:51:12;;;;;;;0.57;0.57;;;12.90;91.50;;;;;;4399191;32;20075;-76
2021/04/09 10:53:39;;;;;;;3.72;1.30;;;13.00;90.70;;;;;;4383750;32;20491;-75
2021/04/09 10:56:07;;;;;;;0.88;0.75;;;12.90;90.90;;;;;;4398065;32;20061;-76
2021/04/09 10:58:34;;;;;;;0.50;0.50;;;13.10;90.60;;;;;;4395823;32;20125;-76
2021/04/09 11:01:00;;;;;;;0.73;0.73;;;13.10;90.30;;;;;;4398686;32;20516;-76
2021/04/09 11:03:27;;;;;;;0.57;0.57;;;13.00;90.30;;;;;;4398095;32;20074;-76
2021/04/09 11:05:52;;;;;;;1.00;0.60;;;13.20;90.10;;;;;;4398889;32;20073;-76
2021/04/09 11:08:38;;;;;;;1.50;0.62;;;13.20;90.30;;;;;;4383140;32;20433;-76
2021/04/09 11:11:08;;;;;;;0.98;0.95;;;13.40;91.10;;;;;;4394635;32;20117;-76
2021/04/09 11:13:36;;;;;;;0.47;0.47;;;13.50;89.80;;;;;;4402455;32;20082;-76
2021/04/09 11:16:03;;;;;;;0.70;0.70;;;13.80;89.70;;;;;;4400942;32;20066;-76
2021/04/09 11:18:50;;;;;;;0.50;0.50;;;13.80;88.60;;;;;;4400382;32;20123;-76
2021/04/09 11:21:16;;;;;;;0.40;0.40;;;13.80;88.80;;;;;;4385235;32;20138;-76
2021/04/09 11:23:42;;;;;;;0.50;0.50;;;13.80;88.20;;;;;;4400955;32;20070;-76
2021/04/09 11:26:17;;;;;;;1.20;0.85;;;13.80;89.00;;;;;;4401670;32;20074;-76
2021/04/09 11:28:52;;;;;;;0.30;0.30;;;13.90;88.00;;;;;;4400990;32;20066;-76
2021/04/09 11:31:24;;;;;;;0.50;0.50;;;13.90;89.20;;;;;;4399650;32;20504;-76
2021/04/09 11:34:02;;;;;;;1.75;0.68;;;14.10;88.20;;;;;;4398061;32;20105;-76
2021/04/09 11:36:28;;;;;;;0.60;0.60;;;14.00;87.40;;;;;;4398360;32;20074;-75
2021/04/09 11:39:12;;;;;;;10.15;1.08;;;14.20;87.10;;;;;;4397790;32;20066;-75
2021/04/09 11:41:40;;;;;;;0.35;0.30;;;14.30;86.90;;;;;;4398373;32;20578;-75
2021/04/09 11:44:34;;;;;;;0.70;0.52;;;14.70;85.10;;;;;;4398162;32;20069;-75
2021/04/09 11:47:20;;;;;;;0.35;0.35;;;14.90;85.10;;;;;;4393984;32;20069;-76
2021/04/09 11:49:47;;;;;;;2.40;0.73;;;15.20;84.30;;;;;;4413018;32;20061;-75
2021/04/09 11:52:13;;;;;;;3.03;0.57;;;15.80;82.40;;;;;;4414016;32;20455;-75
2021/04/09 11:54:41;;;;;;;0.77;0.75;;;15.70;81.70;;;;;;4413051;32;20077;-75
2021/04/09 11:57:27;;;;;;;0.30;0.30;;;15.50;80.60;;;;;;4414448;32;20135;-75
2021/04/09 11:59:54;;;;;;;0.60;0.60;;;15.40;82.20;;;;;;4383051;32;20110;-76
2021/04/09 12:02:26;;;;;;;1.12;0.80;;;15.60;80.80;;;;;;4382949;32;20067;-76
2021/04/09 12:04:52;;;;;;;1.27;0.45;;;16.40;79.70;;;;;;4381599;32;20528;-75
2021/04/09 12:07:21;;;;;;;0.50;0.50;;;16.80;78.50;;;;;;4387567;32;20082;-75
2021/04/09 12:09:53;;;;;;;0.43;0.43;;;16.50;77.90;;;;;;4399257;32;20085;-75
2021/04/09 12:12:20;;;;;;;0.40;0.40;;;16.60;77.90;;;;;;4397539;32;20074;-76
2021/04/09 12:14:48;;;;;;;0.40;0.40;;;16.60;77.30;;;;;;4397459;32;20082;-76
2021/04/09 12:17:16;;;;;;;1.02;0.70;;;16.70;75.20;;;;;;4399130;32;20484;-76
2021/04/09 12:19:43;;;;;;;4.18;0.43;;;16.90;75.20;;;;;;4398103;32;20062;-76
2021/04/09 12:22:10;;;;;;;0.65;0.52;;;17.20;73.10;;;;;;4400471;32;20062;-76
2021/04/09 12:24:36;;;;;;;3.65;1.42;;;17.00;72.70;;;;;;4399636;32;20507;-75
2021/04/09 12:27:03;;;;;;;0.30;0.30;;;17.20;72.70;;;;;;4400520;32;20154;-76
2021/04/09 12:29:29;;;;;;;0.80;0.65;;;17.20;71.20;;;;;;4400436;32;20092;-76
2021/04/09 12:31:54;;;;;;;0.40;0.40;;;17.20;71.10;;;;;;4398863;32;20484;-76
2021/04/09 12:34:20;;;;;;;1.08;1.00;;;17.00;71.50;;;;;;4396718;32;20091;-75
2021/04/09 12:36:47;;;;;;;1.95;0.65;;;16.90;71.70;;;;;;4397668;32;20078;-75
2021/04/09 12:39:14;;;;;;;0.32;0.32;;;17.30;70.50;;;;;;4397302;32;20067;-76
2021/04/09 12:41:40;;;;;;;0.70;0.70;;;17.10;69.90;;;;;;4397982;32;20082;-76
2021/04/09 12:44:08;;;;;;;2.35;1.05;;;17.00;70.00;;;;;;4397443;32;20073;-76
2021/04/09 12:46:35;;;;;;;0.52;0.52;;;17.10;70.00;;;;;;4397387;32;20358;-75
2021/04/09 12:49:01;;;;;;;1.77;0.62;;;16.80;70.60;;;;;;4397435;32;20452;-76
2021/04/09 12:51:27;;;;;;;0.55;0.55;;;16.50;71.70;;;;;;4398235;32;20066;-75
2021/04/09 12:53:53;;;;;;;0.50;0.50;;;16.30;72.20;;;;;;4396677;32;20086;-75
2021/04/09 12:56:19;;;;;;;0.40;0.40;;;15.70;71.90;;;;;;4396770;32;20502;-75
2021/04/09 12:58:46;;;;;;;1.52;0.82;;;15.60;73.20;;;;;;4394965;32;20388;-76
2021/04/09 13:01:12;;;;;;;0.70;0.70;;;15.60;73.50;;;;;;4397089;32;20078;-76
2021/04/09 13:03:38;;;;;;;0.30;0.30;;;15.70;72.90;;;;;;4396435;32;20125;-75